Time;durP1;ratioP1;P1;durP2;ratioP2;P2;SDS_P1;SDS_P2;PMS_P1;PMS_P2;Temp;Humidity;BMP_temperature;BMP_pressure;BME280_temperature;BME280_humidity;BME280_pressure;Samples;Min_cycle;Max_cycle;Signal;HPM_P1;HPM_P2
2022/12/06 00:00:45;;;;;;;6.55;3.78;;;;;;;13.43;58.90;99275.69;4899156;29;20040;-73
2022/12/06 00:03:10;;;;;;;8.30;4.55;;;;;;;13.39;58.69;99274.94;4899032;29;20485;-73
2022/12/06 00:05:35;;;;;;;9.02;4.30;;;;;;;13.41;58.72;99265.25;4898724;29;20048;-73
2022/12/06 00:08:01;;;;;;;7.25;4.40;;;;;;;13.41;58.70;99261.75;4898898;29;20127;-73
2022/12/06 00:10:27;;;;;;;7.25;4.75;;;;;;;13.40;59.00;99265.28;4899216;29;20044;-73
2022/12/06 00:12:52;;;;;;;6.75;4.38;;;;;;;13.42;58.55;99259.09;4898660;29;20474;-73
2022/12/06 00:15:18;;;;;;;6.47;4.35;;;;;;;13.39;58.83;99264.44;4898912;29;20033;-73
2022/12/06 00:17:43;;;;;;;6.18;3.90;;;;;;;13.39;58.74;99259.22;4898936;29;20056;-73
2022/12/06 00:20:09;;;;;;;6.95;4.13;;;;;;;13.41;58.71;99257.38;4898321;29;20044;-73
2022/12/06 00:22:35;;;;;;;7.35;4.75;;;;;;;13.38;58.86;99257.47;4898484;29;20108;-73
2022/12/06 00:25:00;;;;;;;7.20;4.35;;;;;;;13.41;58.70;99261.75;4910263;29;20378;-73
2022/12/06 00:27:25;;;;;;;7.32;3.90;;;;;;;13.40;58.81;99260.91;4917141;29;20032;-73
2022/12/06 00:29:51;;;;;;;7.07;4.22;;;;;;;13.41;58.71;99252.16;4917414;29;20024;-72
2022/12/06 00:32:16;;;;;;;7.60;4.55;;;;;;;13.38;58.78;99251.38;4917236;29;20043;-72
2022/12/06 00:34:42;;;;;;;7.18;4.63;;;;;;;13.36;58.65;99245.34;4917138;29;20028;-72
2022/12/06 00:37:07;;;;;;;8.65;4.45;;;;;;;13.36;58.76;99248.81;4917397;29;20032;-72
2022/12/06 00:39:33;;;;;;;7.03;4.18;;;;;;;13.41;58.73;99240.78;4909561;29;20028;-73
2022/12/06 00:41:58;;;;;;;7.05;4.22;;;;;;;13.38;58.87;99247.00;4898412;29;20031;-72
2022/12/06 00:44:23;;;;;;;7.82;4.43;;;;;;;13.36;58.79;99243.56;4898352;29;20063;-73
2022/12/06 00:46:49;;;;;;;7.88;4.38;;;;;;;13.37;58.72;99245.28;4898317;29;20032;-73
2022/12/06 00:49:15;;;;;;;6.18;3.97;;;;;;;13.36;58.74;99247.97;4897602;29;20049;-73
2022/12/06 00:51:40;;;;;;;7.03;4.25;;;;;;;13.37;58.47;99249.69;4904834;29;20032;-72
2022/12/06 00:54:07;;;;;;;6.53;3.90;;;;;;;13.36;58.90;99246.19;4917112;29;20051;-72
2022/12/06 00:56:35;;;;;;;8.07;4.55;;;;;;;13.34;58.62;99245.41;4916815;29;20428;-72
2022/12/06 00:59:00;;;;;;;6.25;3.80;;;;;;;13.37;58.58;99249.69;4917045;29;20055;-73
2022/12/06 01:01:29;;;;;;;6.78;4.03;;;;;;;13.37;58.53;99252.31;4916931;29;20063;-73
2022/12/06 01:03:58;;;;;;;7.15;3.90;;;;;;;13.35;58.75;99248.84;4916524;29;20050;-73
2022/12/06 01:06:26;;;;;;;6.55;4.03;;;;;;;13.34;58.69;99249.75;4916994;29;20028;-73
2022/12/06 01:08:57;;;;;;;6.63;4.55;;;;;;;13.32;58.74;99251.59;4916727;29;20036;-74
2022/12/06 01:11:23;;;;;;;6.85;3.85;;;;;;;13.36;58.61;99253.22;4916764;29;20036;-73
2022/12/06 01:13:50;;;;;;;5.82;3.90;;;;;;;13.32;58.72;99257.66;4916683;29;20035;-73
2022/12/06 01:16:19;;;;;;;7.95;4.43;;;;;;;13.36;58.62;99254.06;4916761;29;20417;-73
2022/12/06 01:18:44;;;;;;;7.15;4.25;;;;;;;13.33;58.88;99259.41;4916470;29;20035;-73
2022/12/06 01:21:12;;;;;;;7.60;4.18;;;;;;;13.35;58.66;99257.59;4916611;29;20421;-73
2022/12/06 01:23:38;;;;;;;5.88;4.00;;;;;;;13.35;58.57;99261.97;4916767;29;20024;-73
2022/12/06 01:26:05;;;;;;;7.50;4.57;;;;;;;13.35;58.58;99262.81;4916490;29;20055;-73
2022/12/06 01:28:31;;;;;;;7.90;4.45;;;;;;;13.34;58.50;99266.34;4916736;29;20083;-73
2022/12/06 01:30:56;;;;;;;6.90;4.55;;;;;;;13.32;58.57;99262.91;4916610;29;20036;-73
2022/12/06 01:33:22;;;;;;;7.22;4.30;;;;;;;13.35;58.43;99260.22;4915588;29;20038;-73
2022/12/06 01:35:48;;;;;;;6.65;4.40;;;;;;;13.34;58.63;99266.34;4916526;29;20039;-73
2022/12/06 01:38:13;;;;;;;6.75;4.18;;;;;;;13.32;58.56;99259.44;4916596;29;20036;-73
2022/12/06 01:40:41;;;;;;;5.75;4.00;;;;;;;13.28;58.62;99251.66;4899999;29;20032;-73
2022/12/06 01:43:29;;;;;;;7.28;4.13;;;;;;;13.34;58.62;99255.00;4897697;29;20119;-73
2022/12/06 01:45:55;;;;;;;6.90;4.30;;;;;;;13.35;58.55;99257.59;4897643;29;20116;-73
2022/12/06 01:48:25;;;;;;;7.47;4.57;;;;;;;13.32;58.66;99252.44;4880088;29;20052;-73
2022/12/06 01:50:52;;;;;;;6.38;4.07;;;;;;;13.32;58.57;99252.44;4897494;29;20429;-73
2022/12/06 01:53:18;;;;;;;6.88;4.28;;;;;;;13.33;58.48;99251.53;4916349;29;20035;-73
2022/12/06 01:55:45;;;;;;;8.07;4.00;;;;;;;13.33;58.45;99248.94;4916173;29;20505;-73
2022/12/06 01:58:16;;;;;;;6.28;4.32;;;;;;;13.33;58.54;99243.69;4916443;29;20032;-73
2022/12/06 02:00:42;;;;;;;6.28;4.00;;;;;;;13.35;58.42;99241.00;4916338;29;20024;-73
2022/12/06 02:03:11;;;;;;;6.35;4.20;;;;;;;13.32;58.21;99247.19;4915943;29;20072;-73
2022/12/06 02:05:37;;;;;;;6.80;4.53;;;;;;;13.33;58.32;99248.94;4899238;29;20024;-73
2022/12/06 02:08:04;;;;;;;8.07;4.38;;;;;;;13.27;58.45;99233.41;4916083;29;20028;-73
2022/12/06 02:10:30;;;;;;;7.68;4.85;;;;;;;13.31;58.34;99235.00;4916211;29;20103;-73
2022/12/06 02:12:57;;;;;;;6.30;3.90;;;;;;;13.32;58.14;99233.25;4916175;29;20035;-73
2022/12/06 02:16:01;;;;;;;7.90;4.35;;;;;;;13.29;58.41;99236.81;4914301;29;20098;-73
2022/12/06 02:18:51;;;;;;;9.30;4.20;;;;;;;13.28;58.52;99229.88;4895302;29;20120;-73
2022/12/06 02:21:25;;;;;;;6.45;3.97;;;;;;;13.32;58.31;99225.38;4897188;29;20029;-73
2022/12/06 02:24:31;;;;;;;6.18;4.22;;;;;;;13.30;58.27;99233.28;4897251;29;20035;-72
2022/12/06 02:27:30;;;;;;;6.40;4.17;;;;;;;13.28;58.47;99235.09;4839565;29;20045;-73
2022/12/06 02:30:34;;;;;;;6.13;3.97;;;;;;;13.25;58.42;99229.94;4848413;29;20810;-73
2022/12/06 02:33:05;;;;;;;7.13;4.20;;;;;;;13.26;58.41;99237.78;4857947;29;20073;-73
2022/12/06 02:35:39;;;;;;;6.03;4.10;;;;;;;13.26;58.48;99232.53;4858044;29;20037;-72
2022/12/06 02:38:20;;;;;;;6.63;4.20;;;;;;;13.26;58.27;99236.91;4858039;29;20069;-73
2022/12/06 02:40:56;;;;;;;7.72;4.40;;;;;;;13.23;58.35;99242.25;4857780;29;20061;-72
2022/12/06 02:43:28;;;;;;;7.55;4.82;;;;;;;13.27;58.43;99242.09;4857863;29;20074;-73
2022/12/06 02:45:56;;;;;;;6.25;3.92;;;;;;;13.25;58.47;99243.06;4860191;29;20124;-72
2022/12/06 02:48:24;;;;;;;7.05;4.78;;;;;;;13.31;58.20;99244.63;4861016;29;20046;-73
2022/12/06 02:51:00;;;;;;;7.88;4.38;;;;;;;13.25;58.46;99245.69;4861038;29;20482;-72
2022/12/06 02:53:29;;;;;;;7.45;4.18;;;;;;;13.27;58.39;99243.88;4861123;29;20076;-73
2022/12/06 02:55:56;;;;;;;6.20;4.18;;;;;;;13.26;58.27;99250.00;4860900;29;20034;-73
2022/12/06 02:58:21;;;;;;;6.50;4.13;;;;;;;13.27;58.33;99249.13;4891201;29;20036;-73
2022/12/06 03:00:56;;;;;;;6.72;4.43;;;;;;;13.27;58.30;99249.97;4883081;29;20040;-73
2022/12/06 03:03:40;;;;;;;5.78;4.25;;;;;;;13.27;58.47;99257.00;4900167;29;20071;-72
2022/12/06 03:06:23;;;;;;;6.07;3.90;;;;;;;13.27;58.43;99257.00;4900145;29;20041;-73
2022/12/06 03:09:05;;;;;;;6.07;3.80;;;;;;;13.29;58.36;99260.41;4900097;29;20035;-74
2022/12/06 03:11:54;;;;;;;6.57;4.15;;;;;;;13.28;58.16;99259.53;4900021;29;20025;-73
2022/12/06 03:14:25;;;;;;;7.35;4.30;;;;;;;13.28;58.45;99258.69;4882767;29;20434;-74
2022/12/06 03:17:06;;;;;;;6.07;4.10;;;;;;;13.28;58.24;99253.44;4900036;29;20551;-73
2022/12/06 03:19:35;;;;;;;7.40;4.05;;;;;;;13.29;58.21;99252.53;4899887;29;20031;-73
2022/12/06 03:22:10;;;;;;;6.15;3.90;;;;;;;13.26;58.26;99245.63;4899753;29;20029;-73
2022/12/06 03:24:39;;;;;;;6.45;3.97;;;;;;;13.30;58.20;99249.00;4899794;29;20044;-73
2022/12/06 03:27:09;;;;;;;7.20;4.90;;;;;;;13.25;58.21;99250.91;4899855;29;20421;-73
2022/12/06 03:29:40;;;;;;;6.68;4.25;;;;;;;13.24;58.19;99251.81;4899444;29;20021;-73
2022/12/06 03:32:08;;;;;;;6.68;4.10;;;;;;;13.24;58.35;99249.22;4899590;29;20044;-73
2022/12/06 03:34:41;;;;;;;6.28;4.22;;;;;;;13.27;58.13;99243.88;4899614;29;20072;-74
2022/12/06 03:37:11;;;;;;;6.10;4.00;;;;;;;13.28;58.02;99245.59;4899667;29;20024;-73
2022/12/06 03:39:46;;;;;;;6.70;4.30;;;;;;;13.30;57.95;99243.78;4899399;29;20040;-73
2022/12/06 03:42:13;;;;;;;6.13;3.97;;;;;;;13.26;58.09;99242.16;4899496;29;20107;-73
2022/12/06 03:44:39;;;;;;;6.18;4.18;;;;;;;13.24;58.17;99243.97;4899066;29;20036;-73
2022/12/06 03:47:15;;;;;;;7.30;4.65;;;;;;;13.23;58.03;99242.25;4899504;29;20024;-73
2022/12/06 03:49:46;;;;;;;7.13;4.43;;;;;;;13.22;57.99;99233.53;4892535;29;20092;-73
2022/12/06 03:52:12;;;;;;;6.53;4.28;;;;;;;13.21;57.92;99228.38;4909750;29;20032;-73
2022/12/06 03:54:38;;;;;;;7.60;4.57;;;;;;;13.24;58.03;99233.47;4918076;29;20028;-73
2022/12/06 03:57:04;;;;;;;7.25;4.22;;;;;;;13.24;57.80;99230.88;4917626;29;20103;-73
2022/12/06 03:59:30;;;;;;;6.95;4.45;;;;;;;13.18;57.91;99228.44;4917763;29;20032;-72
2022/12/06 04:01:55;;;;;;;6.47;4.28;;;;;;;13.20;57.89;99227.50;4918037;29;20028;-73
2022/12/06 04:04:21;;;;;;;6.90;4.25;;;;;;;13.21;57.96;99223.13;4918017;29;20017;-73
2022/12/06 04:06:47;;;;;;;7.57;4.25;;;;;;;13.18;57.84;99220.59;4917928;29;20413;-73
2022/12/06 04:11:56;;;;;;;6.47;4.40;;;;;;;13.15;57.96;99214.56;4917621;29;20148;-73
2022/12/06 04:14:21;;;;;;;7.22;4.80;;;;;;;13.15;58.00;99216.31;4914813;29;20545;-73
2022/12/06 04:19:31;;;;;;;5.82;4.15;;;;;;;13.14;57.81;99207.56;4898919;29;20096;-72
2022/12/06 04:24:40;;;;;;;7.13;4.30;;;;;;;13.13;57.82;99211.09;4898769;29;20063;-73
2022/12/06 04:40:47;;;;;;;6.18;4.28;;;;;;;13.12;57.81;99225.13;4900084;29;20043;-72
2022/12/06 04:45:57;;;;;;;6.45;3.90;;;;;;;13.11;57.72;99223.41;4898583;29;20112;-72
2022/12/06 04:48:22;;;;;;;5.47;3.92;;;;;;;13.12;57.67;99219.03;4898083;29;20105;-72
2022/12/06 04:50:48;;;;;;;6.28;4.45;;;;;;;13.12;57.81;99227.72;4898410;29;20047;-73
2022/12/06 04:53:14;;;;;;;6.25;4.30;;;;;;;13.12;57.66;99225.13;4916795;29;20398;-73
2022/12/06 04:55:43;;;;;;;6.65;4.03;;;;;;;13.10;57.97;99221.69;4916667;29;20032;-73
2022/12/06 04:58:09;;;;;;;6.70;4.20;;;;;;;13.12;57.78;99219.88;4916956;29;20032;-72
2022/12/06 05:00:34;;;;;;;6.95;4.30;;;;;;;13.07;57.90;99210.47;4916929;29;20503;-73
2022/12/06 05:02:59;;;;;;;6.78;4.05;;;;;;;13.07;57.85;99211.28;4916918;29;20036;-73
2022/12/06 05:05:25;;;;;;;5.47;3.88;;;;;;;13.10;57.57;99211.22;4916915;29;20039;-73
2022/12/06 05:07:50;;;;;;;6.95;4.15;;;;;;;13.10;57.56;99205.97;4915975;29;20024;-73
2022/12/06 05:10:16;;;;;;;6.72;4.43;;;;;;;13.08;57.72;99204.31;4916452;29;20059;-72
2022/12/06 05:12:41;;;;;;;6.40;4.35;;;;;;;13.10;57.49;99198.13;4916816;29;20048;-73
2022/12/06 05:15:07;;;;;;;6.88;4.43;;;;;;;13.02;57.69;99190.50;4916822;29;20119;-73
2022/12/06 05:17:32;;;;;;;5.97;3.75;;;;;;;13.03;57.55;99188.75;4916869;29;20609;-73
2022/12/06 05:19:58;;;;;;;6.45;4.50;;;;;;;13.00;57.81;99186.22;4916645;29;20036;-73
2022/12/06 05:22:23;;;;;;;7.10;4.50;;;;;;;13.02;57.56;99193.13;4916789;29;20067;-73
2022/12/06 05:24:49;;;;;;;7.03;4.85;;;;;;;13.06;57.50;99193.00;4916200;29;20024;-73
2022/12/06 05:27:15;;;;;;;6.38;4.35;;;;;;;13.04;57.46;99200.94;4916541;29;20027;-73
2022/12/06 05:29:41;;;;;;;6.63;4.28;;;;;;;13.06;57.68;99203.47;4916725;29;20059;-73
2022/12/06 05:32:06;;;;;;;6.25;3.90;;;;;;;13.05;57.59;99207.88;4916429;29;20036;-73
2022/12/06 05:34:31;;;;;;;5.60;3.80;;;;;;;13.06;57.57;99204.34;4916468;29;20027;-72
2022/12/06 05:36:57;;;;;;;6.75;4.05;;;;;;;12.99;57.57;99192.34;4916578;29;20382;-73
2022/12/06 05:39:23;;;;;;;6.55;4.85;;;;;;;13.00;57.56;99199.31;4915923;29;20123;-73
2022/12/06 05:41:48;;;;;;;7.32;4.55;;;;;;;12.94;57.62;99199.50;4916392;29;20437;-73
2022/12/06 05:44:14;;;;;;;7.78;4.63;;;;;;;12.97;57.41;99194.16;4916461;29;20040;-73
2022/12/06 05:46:39;;;;;;;5.57;4.30;;;;;;;12.92;57.66;99201.31;4916297;29;20103;-73
2022/12/06 05:49:04;;;;;;;6.68;4.32;;;;;;;12.94;57.71;99194.25;4916175;29;20387;-73
2022/12/06 05:51:30;;;;;;;8.05;4.68;;;;;;;12.96;57.76;99209.03;4916125;29;20031;-72
2022/12/06 05:53:55;;;;;;;7.03;4.00;;;;;;;12.96;57.73;99213.41;4916061;29;20035;-73
2022/12/06 05:56:21;;;;;;;6.78;4.35;;;;;;;13.00;57.63;99215.03;4916237;29;20044;-73
2022/12/06 05:58:46;;;;;;;6.20;4.05;;;;;;;12.98;57.74;99222.09;4916150;29;20036;-73
2022/12/06 06:01:11;;;;;;;6.82;4.20;;;;;;;12.99;57.66;99213.31;4916286;29;20036;-73
2022/12/06 06:03:37;;;;;;;6.60;4.22;;;;;;;13.02;57.63;99215.81;4916307;29;20072;-73
2022/12/06 06:06:03;;;;;;;6.70;4.20;;;;;;;12.99;57.66;99211.53;4916248;29;20036;-72
2022/12/06 06:08:29;;;;;;;8.05;4.65;;;;;;;13.01;57.61;99208.88;4915843;29;20055;-73
2022/12/06 06:10:55;;;;;;;7.25;4.63;;;;;;;13.01;57.56;99208.88;4916245;29;20024;-72
2022/12/06 06:13:21;;;;;;;5.90;3.85;;;;;;;13.00;57.43;99212.41;4916005;29;20036;-72
2022/12/06 06:15:48;;;;;;;6.75;4.35;;;;;;;12.97;57.59;99204.63;4916202;29;20039;-72
2022/12/06 06:18:14;;;;;;;6.03;3.88;;;;;;;12.94;57.64;99212.59;4916167;29;20126;-73
2022/12/06 06:20:39;;;;;;;6.53;4.07;;;;;;;12.98;57.36;99222.09;4918916;29;20036;-73
2022/12/06 06:23:05;;;;;;;7.38;4.22;;;;;;;12.96;57.30;99224.75;4909067;29;20028;-72
2022/12/06 06:25:30;;;;;;;7.53;4.68;;;;;;;12.94;57.48;99216.09;4900843;29;20461;-73
2022/12/06 06:27:56;;;;;;;6.43;4.53;;;;;;;12.94;57.31;99226.56;4900874;29;20449;-73
2022/12/06 06:30:21;;;;;;;6.78;4.55;;;;;;;12.94;57.55;99242.28;4905576;29;20024;-72
2022/12/06 06:32:47;;;;;;;7.38;4.45;;;;;;;12.98;57.34;99243.03;4919730;29;20059;-73
2022/12/06 06:35:13;;;;;;;6.93;4.45;;;;;;;12.96;57.51;99234.34;4919571;29;20064;-72
2022/12/06 06:37:38;;;;;;;6.30;4.10;;;;;;;12.95;57.50;99237.88;4919296;29;20159;-73
2022/12/06 06:40:04;;;;;;;5.85;4.07;;;;;;;12.95;57.51;99230.91;4919415;29;20493;-73
2022/12/06 06:42:30;;;;;;;6.18;4.10;;;;;;;12.94;57.54;99236.16;4919673;29;20033;-73
2022/12/06 06:44:55;;;;;;;6.65;4.25;;;;;;;12.95;57.45;99237.88;4919361;29;20404;-72
2022/12/06 06:47:21;;;;;;;7.70;4.60;;;;;;;12.96;57.52;99239.59;4919534;29;20481;-73
2022/12/06 06:49:47;;;;;;;6.28;3.83;;;;;;;12.97;57.53;99236.06;4919130;29;20044;-72
2022/12/06 06:52:13;;;;;;;7.25;4.15;;;;;;;12.96;57.42;99232.59;4918829;29;20039;-72
2022/12/06 06:54:38;;;;;;;6.65;4.38;;;;;;;12.97;57.44;99236.94;4919273;29;20107;-73
2022/12/06 06:57:03;;;;;;;6.43;4.43;;;;;;;12.96;57.49;99239.59;4919248;29;20028;-73
2022/12/06 06:59:29;;;;;;;6.47;3.80;;;;;;;12.97;57.51;99249.16;4919852;29;20031;-72
2022/12/06 07:01:55;;;;;;;6.53;4.15;;;;;;;12.97;57.44;99243.91;4918873;29;20032;-72
2022/12/06 07:04:20;;;;;;;6.72;4.00;;;;;;;12.98;57.50;99237.81;4912645;29;20036;-72
2022/12/06 07:06:46;;;;;;;7.80;4.20;;;;;;;12.96;57.66;99231.72;4908080;29;20020;-73
2022/12/06 07:09:11;;;;;;;6.95;4.32;;;;;;;12.96;57.55;99229.13;4909764;29;20106;-73
2022/12/06 07:11:36;;;;;;;6.95;4.30;;;;;;;12.95;57.59;99230.91;4908361;29;20478;-73
2022/12/06 07:14:02;;;;;;;7.20;4.68;;;;;;;12.95;57.46;99228.28;4908629;29;20503;-73
2022/12/06 07:16:28;;;;;;;6.50;3.92;;;;;;;12.94;57.68;99234.41;4909743;29;20116;-73
2022/12/06 07:18:54;;;;;;;6.78;4.57;;;;;;;12.94;57.51;99233.56;4910391;29;20437;-73
2022/12/06 07:21:22;;;;;;;8.10;5.30;;;;;;;12.89;57.54;99224.06;4918517;29;20028;-72
2022/12/06 07:23:48;;;;;;;8.77;5.50;;;;;;;12.87;57.83;99225.00;4918802;29;20071;-72
2022/12/06 07:26:19;;;;;;;11.25;5.85;;;;;;;12.93;57.46;99230.06;4918704;29;20123;-76
2022/12/06 07:28:46;;;;;;;9.25;5.22;;;;;;;12.94;57.19;99228.31;4918153;29;20079;-75
2022/12/06 07:31:14;;;;;;;9.13;4.70;;;;;;;12.97;56.96;99226.44;4917298;29;20436;-74
2022/12/06 07:33:41;;;;;;;8.80;5.25;;;;;;;12.99;56.77;99236.88;4912887;29;20045;-71
2022/12/06 07:36:08;;;;;;;9.48;5.05;;;;;;;12.99;56.56;99223.78;4917881;29;20512;-71
2022/12/06 07:38:34;;;;;;;9.50;5.40;;;;;;;12.99;56.84;99224.63;4918413;29;20020;-70
2022/12/06 07:46:34;;;;;;;18.30;9.23;;;;;;;12.95;56.45;99232.66;4918503;29;20035;-70
2022/12/06 07:48:59;;;;;;;20.17;9.57;;;;;;;12.94;56.43;99244.03;4918197;29;20048;-70
2022/12/06 07:51:25;;;;;;;25.20;11.20;;;;;;;12.89;56.34;99245.00;4917571;29;20063;-70
2022/12/06 07:53:50;;;;;;;28.92;11.27;;;;;;;12.91;56.41;99249.34;4918075;29;20047;-71
2022/12/06 07:56:15;;;;;;;25.20;10.82;;;;;;;12.95;56.45;99256.22;4918231;29;20487;-70
2022/12/06 07:58:41;;;;;;;18.65;9.77;;;;;;;12.97;56.37;99273.59;4918051;29;20111;-70
2022/12/06 08:01:06;;;;;;;21.88;10.05;;;;;;;12.96;56.45;99273.63;4918049;29;20028;-70
2022/12/06 08:03:32;;;;;;;24.70;9.88;;;;;;;12.97;56.36;99277.97;4908948;29;20032;-70
2022/12/06 08:05:57;;;;;;;21.33;9.55;;;;;;;12.96;56.37;99281.50;4898638;29;20155;-71
2022/12/06 08:08:22;;;;;;;20.85;8.85;;;;;;;12.94;56.80;99270.22;4915147;29;20034;-70
2022/12/06 08:10:48;;;;;;;18.08;8.75;;;;;;;12.89;56.33;99259.91;4911722;29;20446;-71
2022/12/06 08:13:13;;;;;;;13.95;7.80;;;;;;;12.88;56.36;99258.16;4898896;29;20029;-70
2022/12/06 08:15:39;;;;;;;13.07;6.90;;;;;;;12.86;56.42;99260.84;4898948;29;20052;-71
2022/12/06 08:18:04;;;;;;;12.40;6.30;;;;;;;12.85;56.49;99269.59;4898906;29;20048;-71
2022/12/06 08:20:30;;;;;;;12.35;6.53;;;;;;;12.83;56.33;99276.63;4898520;29;20481;-70
2022/12/06 08:22:55;;;;;;;12.73;6.63;;;;;;;12.78;56.45;99283.75;4898686;29;20029;-71
2022/12/06 08:25:20;;;;;;;13.13;6.88;;;;;;;12.78;56.33;99277.69;4898741;29;20035;-70
2022/12/06 08:27:46;;;;;;;11.30;6.45;;;;;;;12.78;56.47;99275.06;4900908;29;20047;-71
2022/12/06 08:30:11;;;;;;;11.65;5.95;;;;;;;12.76;56.45;99280.34;4913994;29;20366;-69
2022/12/06 08:32:37;;;;;;;12.15;6.20;;;;;;;12.78;56.37;99278.53;4917372;29;20483;-70
2022/12/06 08:35:02;;;;;;;8.68;5.65;;;;;;;12.73;56.36;99281.28;4917030;29;20040;-70
2022/12/06 08:37:28;;;;;;;8.27;5.65;;;;;;;12.73;56.44;99280.41;4917525;29;20488;-71
2022/12/06 08:39:53;;;;;;;9.90;6.18;;;;;;;12.70;56.49;99280.53;4917272;29;20055;-70
2022/12/06 08:42:19;;;;;;;7.72;5.07;;;;;;;12.72;56.63;99281.31;4917229;29;20587;-70
2022/12/06 08:44:44;;;;;;;7.85;5.15;;;;;;;12.73;56.52;99288.28;4917403;29;20079;-70
2022/12/06 08:47:10;;;;;;;9.30;5.30;;;;;;;12.67;56.66;99276.22;4917146;29;20039;-70
2022/12/06 08:49:35;;;;;;;7.93;5.32;;;;;;;12.73;56.67;99283.03;4916626;29;20516;-71
2022/12/06 08:52:00;;;;;;;9.57;5.90;;;;;;;12.69;56.62;99284.88;4916980;29;20107;-71
2022/12/06 08:54:27;;;;;;;7.60;5.13;;;;;;;12.70;56.59;99291.00;4917286;29;20020;-70
2022/12/06 08:56:52;;;;;;;8.55;5.65;;;;;;;12.76;56.62;99290.81;4917205;29;20036;-70
2022/12/06 08:59:18;;;;;;;8.32;5.72;;;;;;;12.77;56.61;99292.53;4916950;29;20028;-70
2022/12/06 09:01:45;;;;;;;8.05;5.25;;;;;;;12.78;56.51;99294.25;4917070;29;20496;-70
2022/12/06 09:04:11;;;;;;;8.93;5.25;;;;;;;12.77;56.60;99294.31;4916653;29;20035;-71
2022/12/06 09:06:39;;;;;;;7.18;4.95;;;;;;;12.76;56.66;99298.66;4899909;29;20028;-70
2022/12/06 09:09:05;;;;;;;7.93;5.10;;;;;;;12.76;56.61;99301.28;4916975;29;20080;-70
2022/12/06 09:11:31;;;;;;;8.57;5.40;;;;;;;12.79;56.52;99306.41;4916721;29;20043;-70
2022/12/06 09:13:56;;;;;;;8.38;5.18;;;;;;;12.79;56.66;99316.06;4916853;29;20560;-69
2022/12/06 09:16:22;;;;;;;8.23;5.03;;;;;;;12.78;56.71;99315.19;4916511;29;20055;-70
2022/12/06 09:18:50;;;;;;;7.50;4.80;;;;;;;12.83;56.62;99322.94;4916763;29;20111;-70
2022/12/06 09:21:21;;;;;;;7.25;4.65;;;;;;;12.81;56.44;99320.34;4916756;29;20544;-71
2022/12/06 09:23:47;;;;;;;8.80;5.18;;;;;;;12.79;56.59;99321.28;4916704;29;20024;-69
2022/12/06 09:26:13;;;;;;;8.35;5.20;;;;;;;12.81;56.59;99325.59;4916667;29;20083;-70
2022/12/06 09:28:40;;;;;;;7.18;4.82;;;;;;;12.81;56.51;99320.34;4916632;29;20035;-71
2022/12/06 09:31:07;;;;;;;9.80;4.90;;;;;;;12.81;56.52;99320.34;4916232;29;20021;-70
2022/12/06 09:33:33;;;;;;;7.25;4.88;;;;;;;12.79;56.75;99326.53;4916498;29;20477;-70
2022/12/06 09:36:01;;;;;;;6.70;5.03;;;;;;;12.76;56.61;99332.72;4916401;29;20116;-70
2022/12/06 09:38:29;;;;;;;8.57;5.35;;;;;;;12.78;56.69;99336.13;4916377;29;20032;-69
2022/12/06 09:41:03;;;;;;;8.48;5.70;;;;;;;12.79;56.53;99342.25;4905970;29;20033;-70
2022/12/06 09:43:44;;;;;;;8.30;5.68;;;;;;;12.78;56.45;99330.91;4897556;29;20112;-69
2022/12/06 09:46:32;;;;;;;8.05;5.25;;;;;;;12.78;56.57;99330.06;4897232;29;20099;-70
2022/12/06 09:49:26;;;;;;;8.73;5.50;;;;;;;12.73;56.61;99343.25;4839598;29;20543;-70
2022/12/06 09:51:51;;;;;;;8.07;5.07;;;;;;;12.75;56.64;99351.94;4847162;29;20037;-70
2022/12/06 09:54:54;;;;;;;9.10;5.22;;;;;;;12.74;56.60;99351.06;4858780;29;20081;-70
2022/12/06 09:57:31;;;;;;;8.90;4.68;;;;;;;12.75;56.64;99351.94;4862072;29;20034;-70
2022/12/06 10:00:02;;;;;;;9.38;5.30;;;;;;;12.73;56.58;99346.75;4861566;29;20042;-70
2022/12/06 10:02:36;;;;;;;8.57;5.40;;;;;;;12.74;56.73;99355.47;4861896;29;20077;-70
2022/12/06 10:05:29;;;;;;;8.27;5.35;;;;;;;12.74;56.44;99350.25;4861930;29;20050;-70
2022/12/06 10:08:01;;;;;;;7.95;5.07;;;;;;;12.74;56.49;99356.31;4861853;29;20038;-71
2022/12/06 10:10:42;;;;;;;8.38;4.95;;;;;;;12.73;56.65;99364.22;4861696;29;20037;-71
2022/12/06 10:13:23;;;;;;;7.93;5.35;;;;;;;12.74;56.59;99361.56;4861705;29;20510;-70
2022/12/06 10:16:09;;;;;;;7.85;5.18;;;;;;;12.74;56.55;99360.72;4861311;29;20046;-70
2022/12/06 10:18:46;;;;;;;7.85;5.20;;;;;;;12.75;56.46;99357.19;4788474;29;20501;-70
2022/12/06 10:21:35;;;;;;;7.40;4.85;;;;;;;12.77;56.69;99350.13;4788668;30;20074;-70
2022/12/06 10:24:08;;;;;;;8.30;4.93;;;;;;;12.73;56.65;99353.72;4788469;30;20113;-70
2022/12/06 10:26:46;;;;;;;7.82;5.25;;;;;;;12.76;56.58;99335.34;4828605;29;20061;-70
2022/12/06 10:29:19;;;;;;;7.32;5.15;;;;;;;12.77;56.62;99339.66;4842138;29;20471;-70
2022/12/06 10:31:48;;;;;;;6.63;4.43;;;;;;;12.78;56.47;99338.75;4843060;29;20042;-70
2022/12/06 10:34:20;;;;;;;8.48;5.30;;;;;;;12.77;56.53;99326.56;4842286;29;20061;-70
2022/12/06 10:37:12;;;;;;;8.75;5.20;;;;;;;12.78;56.49;99330.91;4842905;29;20048;-70
2022/12/06 10:40:05;;;;;;;9.00;5.28;;;;;;;12.77;56.62;99337.03;4842614;29;20117;-71
2022/12/06 10:42:39;;;;;;;8.73;5.20;;;;;;;12.78;56.54;99341.38;4842672;29;20147;-70
2022/12/06 10:48:52;;;;;;;8.38;5.28;;;;;;;12.82;56.56;99327.28;4845187;29;20048;-69
2022/12/06 10:51:23;;;;;;;7.15;4.78;;;;;;;12.82;56.66;99326.44;4845469;29;20058;-68
2022/12/06 10:54:00;;;;;;;6.40;4.72;;;;;;;12.83;56.59;99323.78;4845524;29;20092;-71
2022/12/06 10:56:30;;;;;;;8.30;5.65;;;;;;;12.85;56.56;99321.97;4907815;29;20067;-70
2022/12/06 10:59:13;;;;;;;7.13;4.22;;;;;;;12.85;56.54;99315.88;4918890;29;20032;-70
2022/12/06 11:01:40;;;;;;;7.00;5.03;;;;;;;12.85;56.55;99306.28;4919187;29;20556;-70
2022/12/06 11:04:13;;;;;;;7.32;4.97;;;;;;;12.85;56.58;99295.78;4919020;29;20116;-71
2022/12/06 11:06:44;;;;;;;7.00;4.57;;;;;;;12.85;56.56;99294.94;4917716;29;20040;-70
2022/12/06 11:09:32;;;;;;;8.05;5.10;;;;;;;12.88;56.63;99300.06;4918992;29;20044;-71
2022/12/06 11:11:58;;;;;;;7.20;4.70;;;;;;;12.89;56.53;99297.41;4918877;29;20036;-70
2022/12/06 11:14:40;;;;;;;7.03;4.78;;;;;;;12.89;56.52;99294.78;4918606;29;20437;-71
2022/12/06 11:17:15;;;;;;;7.30;4.35;;;;;;;12.90;56.59;99295.66;4918927;29;20032;-71
2022/12/06 11:19:50;;;;;;;7.57;5.22;;;;;;;12.89;56.66;99286.91;4918910;29;20059;-71
2022/12/06 11:22:41;;;;;;;8.68;4.72;;;;;;;12.91;56.56;99279.03;4918837;29;20028;-70
2022/12/06 11:25:26;;;;;;;7.10;4.85;;;;;;;12.91;56.57;99283.41;4918809;29;20123;-71
2022/12/06 11:27:59;;;;;;;8.30;5.22;;;;;;;12.91;56.67;99280.78;4918364;29;20032;-71
2022/12/06 11:30:27;;;;;;;7.60;5.03;;;;;;;12.91;56.49;99289.50;4918608;29;20429;-70
2022/12/06 11:32:54;;;;;;;7.00;4.63;;;;;;;12.92;56.57;99282.53;4918488;29;20043;-70
2022/12/06 11:35:24;;;;;;;7.05;4.80;;;;;;;12.93;56.63;99286.84;4918797;29;20064;-70
2022/12/06 11:38:00;;;;;;;9.52;5.35;;;;;;;12.93;56.62;99282.44;4918951;29;20032;-69
2022/12/06 11:40:27;;;;;;;;;;;;;;;12.95;56.65;99290.25;4912698;29;20037;-70
2022/12/06 11:42:54;;;;;;;7.50;4.72;;;;;;;12.97;56.59;99277.97;4899577;29;19915;-70
2022/12/06 11:45:31;;;;;;;8.88;5.38;;;;;;;12.98;56.59;99269.22;4899748;29;20482;-70
2022/12/06 11:48:00;;;;;;;7.15;5.03;;;;;;;12.96;56.59;99263.16;4899726;29;20036;-70
2022/12/06 11:50:29;;;;;;;7.38;4.95;;;;;;;12.96;56.54;99258.78;4899475;29;20470;-71
2022/12/06 11:53:14;;;;;;;6.38;4.88;;;;;;;12.99;56.61;99263.09;4915299;29;20152;-70
2022/12/06 11:55:47;;;;;;;8.27;5.55;;;;;;;12.97;56.48;99257.00;4918410;29;20417;-70
2022/12/06 11:58:25;;;;;;;7.07;4.97;;;;;;;13.00;56.49;99251.69;4917840;29;20027;-70
2022/12/06 12:01:00;;;;;;;8.10;5.00;;;;;;;12.99;56.61;99257.84;4918146;29;20032;-70
2022/12/06 12:03:32;;;;;;;7.47;4.88;;;;;;;13.01;56.69;99253.41;4917956;29;20035;-70
2022/12/06 12:06:27;;;;;;;7.20;5.00;;;;;;;13.01;56.59;99249.03;4917964;29;20090;-70
2022/12/06 12:09:00;;;;;;;7.63;4.95;;;;;;;13.02;56.62;99253.38;4913621;29;20409;-71
2022/12/06 12:11:29;;;;;;;8.20;4.57;;;;;;;13.01;56.55;99250.78;4917428;29;20043;-70
2022/12/06 12:13:59;;;;;;;7.85;5.15;;;;;;;13.04;56.62;99250.69;4917811;29;20468;-70
2022/12/06 12:16:34;;;;;;;7.13;4.90;;;;;;;13.02;56.71;99244.63;4900773;29;20096;-70
2022/12/06 12:19:01;;;;;;;7.47;4.90;;;;;;;13.05;56.67;99252.41;4917441;29;20028;-70